createdAt,value
2019-02-26T00:01:46.061Z,28.50
2019-02-26T00:04:24.974Z,28.60
2019-02-26T00:07:04.706Z,28.70
2019-02-26T00:09:44.903Z,28.80
2019-02-26T00:12:28.618Z,28.80
2019-02-26T00:15:07.847Z,28.60
2019-02-26T00:17:49.036Z,28.70
2019-02-26T00:20:29.635Z,28.90
2019-02-26T00:23:10.532Z,29.10
2019-02-26T00:25:52.579Z,28.90
2019-02-26T00:28:34.123Z,28.70
2019-02-26T00:31:13.797Z,28.70
2019-02-26T00:33:53.000Z,29.00
2019-02-26T00:36:33.647Z,29.20
2019-02-26T00:39:15.614Z,29.10
2019-02-26T00:41:58.049Z,29.10
2019-02-26T00:44:41.555Z,29.30
2019-02-26T00:47:25.092Z,29.60
2019-02-26T00:50:16.697Z,29.70
2019-02-26T00:52:59.399Z,29.80
2019-02-26T00:55:39.687Z,29.60
2019-02-26T00:58:19.287Z,29.60
2019-02-26T01:01:01.916Z,29.70
2019-02-26T01:03:43.094Z,29.90
2019-02-26T01:06:24.558Z,29.90
2019-02-26T01:09:05.497Z,29.80
2019-02-26T01:11:45.182Z,29.70
2019-02-26T01:14:24.826Z,29.80
2019-02-26T01:17:04.173Z,30.10
2019-02-26T01:19:43.438Z,30.20
2019-02-26T01:22:22.758Z,30.60
2019-02-26T01:25:10.105Z,30.80
2019-02-26T01:27:51.112Z,30.50
2019-02-26T01:30:35.596Z,30.40
2019-02-26T01:33:12.684Z,30.60
2019-02-26T01:35:52.837Z,30.40
2019-02-26T01:38:39.494Z,30.40
2019-02-26T01:41:23.239Z,30.50
2019-02-26T01:44:02.354Z,30.50
2019-02-26T01:46:41.679Z,30.60
2019-02-26T01:49:21.628Z,31.00
2019-02-26T01:52:01.366Z,31.10
2019-02-26T01:54:41.279Z,31.10
2019-02-26T01:57:21.829Z,30.80
2019-02-26T02:00:01.149Z,30.70
2019-02-26T02:02:42.479Z,31.10
2019-02-26T02:05:23.475Z,31.30
2019-02-26T02:08:02.479Z,31.20
2019-02-26T02:10:42.107Z,31.40
2019-02-26T02:13:25.950Z,31.40
2019-02-26T02:16:04.353Z,31.40
2019-02-26T02:18:51.369Z,31.30
2019-02-26T02:21:33.433Z,31.10
2019-02-26T02:24:15.024Z,31.30
2019-02-26T02:27:00.336Z,31.50
2019-02-26T02:29:43.823Z,31.50
2019-02-26T02:32:24.127Z,31.60
2019-02-26T02:35:06.709Z,31.20
2019-02-26T02:37:44.797Z,31.20
2019-02-26T02:40:28.451Z,31.40
2019-02-26T02:43:10.043Z,31.50
2019-02-26T02:45:49.970Z,31.10
2019-02-26T02:48:37.906Z,31.10
2019-02-26T02:51:17.189Z,31.20
2019-02-26T02:53:59.344Z,31.30
2019-02-26T02:56:41.778Z,31.00
2019-02-26T02:59:21.301Z,31.00
2019-02-26T03:02:00.995Z,30.80
2019-02-26T03:04:42.897Z,31.20
2019-02-26T03:07:24.355Z,31.20
2019-02-26T03:10:06.508Z,31.10
2019-02-26T03:12:48.655Z,30.90
2019-02-26T03:15:29.180Z,30.80
2019-02-26T03:18:09.890Z,30.80
2019-02-26T03:20:51.220Z,30.70
2019-02-26T03:23:31.408Z,30.80
2019-02-26T03:26:14.794Z,31.20
2019-02-26T03:28:53.291Z,31.10
2019-02-26T03:31:35.230Z,31.20
2019-02-26T03:34:21.798Z,31.30
2019-02-26T03:36:59.332Z,31.60
2019-02-26T03:39:38.900Z,31.80
2019-02-26T03:42:21.175Z,31.70
2019-02-26T03:45:02.920Z,31.90
2019-02-26T03:47:43.177Z,32.50
2019-02-26T03:50:26.297Z,32.50
2019-02-26T03:53:09.056Z,32.20
2019-02-26T03:55:45.202Z,32.00
2019-02-26T03:58:24.940Z,31.80
2019-02-26T04:01:07.298Z,31.90
2019-02-26T04:03:45.238Z,32.30
2019-02-26T04:06:24.513Z,32.50
2019-02-26T04:09:08.333Z,32.50
2019-02-26T04:11:50.179Z,32.90
2019-02-26T04:14:28.764Z,32.80
2019-02-26T04:17:09.157Z,33.20
2019-02-26T04:19:48.597Z,33.40
2019-02-26T04:22:40.192Z,33.20
2019-02-26T04:25:36.448Z,33.30
2019-02-26T04:28:39.344Z,34.00
2019-02-26T04:31:47.117Z,33.70
2019-02-26T04:34:39.863Z,32.50
2019-02-26T04:37:49.851Z,32.40
2019-02-26T04:41:09.527Z,32.90
2019-02-26T04:44:09.001Z,33.00
2019-02-26T04:47:11.581Z,32.90
2019-02-26T04:49:51.000Z,32.60
2019-02-26T04:52:32.418Z,32.90
2019-02-26T04:55:13.690Z,33.20
2019-02-26T04:57:54.045Z,33.40
2019-02-26T05:00:36.042Z,32.50
2019-02-26T05:03:15.086Z,31.70
2019-02-26T05:06:00.152Z,31.40
2019-02-26T05:08:40.334Z,32.30
2019-02-26T05:11:31.587Z,32.50
2019-02-26T05:14:03.134Z,32.80
2019-02-26T05:16:43.573Z,32.80
2019-02-26T05:19:25.708Z,33.30
2019-02-26T05:22:07.037Z,34.00
2019-02-26T05:24:50.170Z,33.10
2019-02-26T05:27:28.409Z,32.70
2019-02-26T05:30:09.854Z,32.50
2019-02-26T05:32:51.972Z,33.10
2019-02-26T05:35:32.939Z,33.90
2019-02-26T05:38:13.033Z,33.80
2019-02-26T05:40:57.156Z,33.00
2019-02-26T05:43:49.454Z,33.80
2019-02-26T05:46:27.484Z,33.70
2019-02-26T05:49:09.715Z,33.90
2019-02-26T05:51:53.328Z,33.90
2019-02-26T05:54:52.675Z,33.70
2019-02-26T05:57:34.244Z,34.20
2019-02-26T06:00:17.224Z,34.60
2019-02-26T06:02:52.959Z,34.50
2019-02-26T06:05:31.803Z,34.60
2019-02-26T06:08:10.982Z,35.10
2019-02-26T06:10:51.485Z,35.20
2019-02-26T06:13:31.562Z,35.00
2019-02-26T06:16:11.208Z,35.40
2019-02-26T06:18:51.907Z,35.00
2019-02-26T06:21:31.133Z,35.10
2019-02-26T06:24:11.431Z,35.10
2019-02-26T06:26:51.552Z,35.30
2019-02-26T06:29:35.020Z,34.90
2019-02-26T06:32:16.920Z,34.80
2019-02-26T06:34:57.198Z,34.60
2019-02-26T06:37:37.884Z,34.40
2019-02-26T06:40:18.505Z,34.60
2019-02-26T06:42:57.957Z,34.90
2019-02-26T06:45:40.284Z,34.40
2019-02-26T06:48:25.049Z,34.80
2019-02-26T06:51:04.701Z,34.70
2019-02-26T06:53:47.142Z,34.70
2019-02-26T06:56:25.033Z,35.10
2019-02-26T06:59:12.317Z,35.30
2019-02-26T07:01:55.523Z,35.60
2019-02-26T07:04:32.535Z,35.30
2019-02-26T07:07:14.334Z,34.50
2019-02-26T07:09:52.270Z,35.00
2019-02-26T07:12:31.613Z,35.00
2019-02-26T07:15:12.653Z,34.60
2019-02-26T07:17:52.658Z,33.70
2019-02-26T07:20:39.489Z,34.10
2019-02-26T07:23:16.324Z,34.70
2019-02-26T07:25:56.265Z,35.30
2019-02-26T07:28:36.975Z,34.80
2019-02-26T07:31:16.265Z,33.80
2019-02-26T07:33:58.228Z,34.20
2019-02-26T07:36:41.091Z,34.40
2019-02-26T07:39:22.694Z,34.30
2019-02-26T07:42:02.858Z,33.30
2019-02-26T07:44:44.726Z,33.40
2019-02-26T07:47:26.436Z,33.50
2019-02-26T07:50:06.707Z,33.40
2019-02-26T07:52:52.235Z,32.40
2019-02-26T07:55:35.413Z,32.10
2019-02-26T07:58:18.023Z,32.40
2019-02-26T08:00:58.512Z,32.40
2019-02-26T08:03:38.191Z,32.40
2019-02-26T08:06:18.476Z,32.10
2019-02-26T08:08:57.924Z,31.90
2019-02-26T08:11:39.176Z,32.00
2019-02-26T08:14:20.827Z,31.50
2019-02-26T08:17:04.025Z,31.90
2019-02-26T08:19:46.382Z,32.00
2019-02-26T08:22:27.017Z,32.20
2019-02-26T08:25:07.202Z,31.90
2019-02-26T08:27:46.442Z,31.80
2019-02-26T08:30:26.223Z,31.70
2019-02-26T08:33:07.330Z,31.50
2019-02-26T08:35:48.879Z,31.20
2019-02-26T08:38:29.259Z,31.10
2019-02-26T08:41:07.420Z,31.40
2019-02-26T08:43:49.095Z,31.20
2019-02-26T08:46:27.510Z,31.00
2019-02-26T08:49:08.726Z,31.20
2019-02-26T08:51:49.694Z,31.10
2019-02-26T08:54:30.783Z,30.90
2019-02-26T08:57:11.972Z,30.80
2019-02-26T08:59:54.457Z,30.90
2019-02-26T09:02:32.917Z,31.30
2019-02-26T09:05:14.658Z,31.10
2019-02-26T09:07:54.907Z,31.20
2019-02-26T09:10:34.017Z,31.20
2019-02-26T09:13:14.543Z,31.00
2019-02-26T09:15:55.648Z,30.80
2019-02-26T09:18:38.131Z,30.80
2019-02-26T09:21:18.090Z,30.80
2019-02-26T09:24:00.069Z,30.90
2019-02-26T09:26:39.991Z,31.20
2019-02-26T09:29:19.651Z,31.10
2019-02-26T09:32:01.203Z,30.70
2019-02-26T09:34:41.099Z,30.60
2019-02-26T09:37:21.008Z,30.80
2019-02-26T09:40:02.974Z,30.80
2019-02-26T09:42:43.845Z,30.60
2019-02-26T09:45:26.059Z,30.80
2019-02-26T09:48:05.127Z,30.80
2019-02-26T09:50:46.321Z,30.80
2019-02-26T09:53:28.027Z,30.70
2019-02-26T09:56:07.421Z,30.90
2019-02-26T09:58:50.867Z,30.60
2019-02-26T10:01:33.244Z,30.50
2019-02-26T10:04:13.053Z,30.40
2019-02-26T10:06:54.431Z,30.50
2019-02-26T10:09:36.834Z,30.70
2019-02-26T10:12:15.685Z,30.80
2019-02-26T10:14:59.635Z,30.70
2019-02-26T10:17:40.804Z,30.50
2019-02-26T10:20:23.288Z,30.50
2019-02-26T10:23:03.436Z,30.60
2019-02-26T10:25:47.648Z,30.30
2019-02-26T10:28:26.939Z,30.30
2019-02-26T10:31:07.804Z,30.30
2019-02-26T10:33:48.940Z,30.40
2019-02-26T10:36:32.484Z,30.40
2019-02-26T10:39:12.349Z,30.30
2019-02-26T10:41:51.787Z,30.30
2019-02-26T10:44:31.255Z,30.50
2019-02-26T10:47:10.706Z,30.60
2019-02-26T10:49:51.877Z,30.50
2019-02-26T10:52:32.976Z,30.30
2019-02-26T10:55:21.924Z,30.30
2019-02-26T10:58:09.737Z,30.10
2019-02-26T11:00:50.633Z,29.90
2019-02-26T11:03:35.268Z,29.80
2019-02-26T11:06:15.895Z,29.80
2019-02-26T11:08:53.134Z,29.90
2019-02-26T11:11:32.889Z,29.80
2019-02-26T11:14:16.463Z,29.70
2019-02-26T11:17:06.300Z,29.90
2019-02-26T11:19:46.666Z,29.80
2019-02-26T11:22:30.491Z,29.60
2019-02-26T11:25:13.348Z,29.60
2019-02-26T11:27:54.602Z,29.70
2019-02-26T11:30:33.754Z,29.80
2019-02-26T11:33:13.647Z,29.80
2019-02-26T11:36:02.862Z,29.60
2019-02-26T11:38:44.527Z,29.70
2019-02-26T11:41:23.902Z,29.60
2019-02-26T11:44:10.290Z,29.60
2019-02-26T11:46:51.151Z,29.50
2019-02-26T17:39:30.656Z,28.80
2019-02-26T17:42:10.719Z,28.90
2019-02-26T17:44:51.239Z,28.80
2019-02-26T17:47:30.530Z,28.70
2019-02-26T17:50:12.032Z,28.70
2019-02-26T17:52:53.696Z,28.90
2019-02-26T17:55:38.584Z,28.90
2019-02-26T17:58:18.781Z,28.80
2019-02-26T18:01:00.580Z,28.60
2019-02-26T18:03:39.872Z,28.80
2019-02-26T18:06:20.078Z,28.80
2019-02-26T18:08:59.338Z,28.70
2019-02-26T18:11:41.114Z,28.60
2019-02-26T18:14:21.235Z,28.60
2019-02-26T18:17:01.724Z,28.80
2019-02-26T18:19:41.117Z,28.70
2019-02-26T18:22:21.760Z,28.70
2019-02-26T18:25:03.845Z,28.70
2019-02-26T18:27:43.181Z,28.60
2019-02-26T18:30:25.821Z,28.60
2019-02-26T18:33:05.230Z,28.60
2019-02-26T18:35:44.777Z,28.60
2019-02-26T18:38:24.703Z,28.50
2019-02-26T18:41:03.944Z,28.40
2019-02-26T18:43:44.798Z,28.50
2019-02-26T18:46:25.859Z,28.60
2019-02-26T18:49:06.681Z,28.50
2019-02-26T18:51:46.031Z,28.40
2019-02-26T18:54:25.244Z,28.50
2019-02-26T18:57:04.585Z,28.60
2019-02-26T18:59:43.894Z,28.60
2019-02-26T19:02:23.871Z,28.60
2019-02-26T19:05:06.875Z,28.50
2019-02-26T19:07:48.751Z,28.50
2019-02-26T19:10:28.454Z,28.50
2019-02-26T19:13:13.520Z,28.50
2019-02-26T19:15:52.714Z,28.40
2019-02-26T19:18:43.229Z,28.40
2019-02-26T19:21:23.371Z,28.50
2019-02-26T19:24:04.585Z,28.50
2019-02-26T19:26:47.356Z,28.40
2019-02-26T19:29:26.815Z,28.50
2019-02-26T19:32:06.259Z,28.70
2019-02-26T19:34:45.434Z,28.60
2019-02-26T19:37:27.829Z,28.50
2019-02-26T19:40:13.177Z,28.40
2019-02-26T19:42:53.434Z,28.40
2019-02-26T19:45:36.069Z,28.40
2019-02-26T19:48:15.396Z,28.40
2019-02-26T19:50:54.811Z,28.40
2019-02-26T19:53:37.100Z,28.40
2019-02-26T19:56:23.366Z,28.40
2019-02-26T19:59:00.545Z,28.30
2019-02-26T20:06:23.225Z,28.40
2019-02-26T20:09:59.228Z,28.40
2019-02-26T20:12:40.817Z,28.40
2019-02-26T20:15:27.503Z,28.40
2019-02-26T20:18:19.571Z,28.30
2019-02-26T20:20:50.630Z,28.40
2019-02-26T20:23:30.024Z,28.40
2019-02-26T20:26:10.832Z,28.50
2019-02-26T20:28:51.339Z,28.40
2019-02-26T20:31:30.572Z,28.40
2019-02-26T20:34:10.845Z,28.30
2019-02-26T20:36:51.163Z,28.30
2019-02-26T20:39:31.152Z,28.40
2019-02-26T20:42:10.543Z,28.50
2019-02-26T20:44:58.766Z,28.50
2019-02-26T20:47:32.299Z,28.40
2019-02-26T20:50:11.990Z,28.40
2019-02-26T20:52:51.819Z,28.50
2019-02-26T20:55:33.664Z,28.50
2019-02-26T20:58:12.780Z,28.40
2019-02-26T21:00:52.670Z,28.20
2019-02-26T21:03:33.038Z,28.30
2019-02-26T21:06:17.773Z,28.50
2019-02-26T21:08:56.793Z,28.60
2019-02-26T21:11:36.851Z,28.40
2019-02-26T21:14:16.362Z,28.30
2019-02-26T21:16:56.360Z,28.40
2019-02-26T21:19:39.527Z,28.50
2019-02-26T21:22:22.003Z,28.40
2019-02-26T21:25:02.026Z,28.30
2019-02-26T21:27:42.505Z,28.20
2019-02-26T21:30:23.462Z,28.30
2019-02-26T21:33:02.807Z,28.50
2019-02-26T21:35:41.953Z,28.50
2019-02-26T21:38:24.076Z,28.40
2019-02-26T21:41:03.961Z,28.30
2019-02-26T21:43:46.502Z,28.60
2019-02-26T21:46:23.361Z,28.60
2019-02-26T21:49:04.310Z,28.50
2019-02-26T21:51:44.892Z,28.40
2019-02-26T21:54:24.821Z,28.50
2019-02-26T21:57:05.521Z,28.50
2019-02-26T21:59:50.050Z,28.50
2019-02-26T22:02:27.216Z,28.50
2019-02-26T22:05:08.114Z,28.40
2019-02-26T22:07:52.081Z,28.30
2019-02-26T22:10:29.404Z,28.30
2019-02-26T22:13:08.610Z,28.50
2019-02-26T22:15:50.548Z,28.50
2019-02-26T22:18:33.954Z,28.30
2019-02-26T22:21:11.962Z,28.30
2019-02-26T22:23:53.453Z,28.30
2019-02-26T22:26:32.771Z,28.50
2019-02-26T22:29:12.959Z,28.50
2019-02-26T22:31:52.371Z,28.30
2019-02-26T22:34:31.149Z,28.20
2019-02-26T22:37:10.391Z,28.20
2019-02-26T22:40:00.779Z,28.40
2019-02-26T22:42:41.321Z,28.50
2019-02-26T22:45:22.245Z,28.50
2019-02-26T22:48:02.776Z,28.40
2019-02-26T22:50:42.843Z,28.30
2019-02-26T22:53:23.536Z,28.70
2019-02-26T22:56:03.450Z,28.60
2019-02-26T22:58:42.298Z,28.60
2019-02-26T23:01:37.799Z,28.50
2019-02-26T23:04:19.820Z,28.40
2019-02-26T23:06:59.523Z,28.50
2019-02-26T23:09:46.858Z,28.50
2019-02-26T23:22:20.938Z,28.10
2019-02-26T23:25:01.744Z,28.00
2019-02-26T23:27:42.582Z,28.20
2019-02-26T23:30:22.234Z,28.20
2019-02-26T23:33:02.830Z,28.20
2019-02-26T23:35:42.306Z,28.30
2019-02-26T23:38:22.737Z,28.20
2019-02-26T23:41:02.792Z,28.30
2019-02-26T23:43:42.916Z,28.50
2019-02-26T23:46:23.346Z,28.50
2019-02-26T23:49:02.830Z,28.20
2019-02-26T23:51:42.581Z,28.30
2019-02-26T23:54:21.393Z,28.50
2019-02-26T23:57:01.451Z,28.70
2019-02-26T23:59:40.354Z,28.60
